Terminal Aerodrome Forecast
Issued by NWS

Home | Current Version | Previous Version | Text Only | Print | Product List | Glossary Off
Versions: 1 2 3 4 5 6 7 8 9 10 11 12 13 14 15 16 17 18 19 20 21 22 23 24 25 26 27

726
FTUS43 KBIS 102044 AAA
TAFDIK
TAF AMD
KDIK 102044Z 1021/1118 34014KT P6SM OVC014
     FM110300 36006KT 6SM BR OVC010
     FM111400 09004KT 2SM -SN BR OVC008=

USA.gov is the U.S. government's official web portal to all federal, state and local government web resources and services.